Terminal Aerodrome Forecast
Issued by NWS

Home | Current Version | Previous Version | Graphics & Text | Print | Product List | Glossary On
Versions: 1 2 3 4 5 6 7 8 9 10 11 12 13 14 15 16
000
FTUS42 KMHX 272324
TAFOAJ
TAF
KOAJ 272324Z 2800/2824 14005KT P6SM SKC
     FM280900 VRB03KT 4SM BR SCT007
     FM281300 06005KT P6SM SCT050 BKN200
     FM281700 08008KT P6SM BKN040
      AMD LTD TO CLD VIS AND WIND=

USA.gov is the U.S. government's official web portal to all federal, state and local government web resources and services.